Soaring Guidance
Issued by NWS Reno, NV

Home | Current Version | Previous Version | Text Only | Print | Product List | Glossary On
Versions: 1 2 3 4 5 6 7 8 9 10 11 12 13 14
000
UXUS97 KREV 051229
SRGREV

SOARING FORECAST
NATIONAL WEATHER SERVICE - RENO NV
700 AM PDT TUE MAY 5 2015

THIS SOARING FORECAST IS FOR THE EASTERN SIERRA AND WESTERN NEVADA
WITH SPECIFIC INDICES FOR THE GREATER RENO AREA.

THIS FORECAST IS NOT UPDATED.

FOR CURRENT FLIGHT CONDITIONS...FORECASTS...AND ADVISORIES...ACCESS
YOUR LOCAL BRIEFING OUTLET OR FLIGHT SERVICE STATION.

*******************************************************************
LOCAL INDICES FOR RENO:                   TODAY     YESTERDAY
MAXIMUM TEMPERATURE AT RENO...(DEG F)...     76
TRIGGER TEMPERATURE...........(DEG F)...     60          62
   EXCEEDED YESTERDAY BY 17Z
MAXIMUM ALTITUDE..............(FT MSL)..  17100       18000
SOARING INDEX.................(FPM).....   1023        1140
FORECASTED K-INDEX.........VALID 18Z....     11          19
FORECASTED K-INDEX.........VALID 00Z....     20          27
FORECASTED LIFTED INDEX....VALID 18Z....      4           2
FORECASTED LIFTED INDEX....VALID 00Z....      1           0

AFTERNOON WINDS ALOFT FORECAST
MSL (FT) WIND/TEMP
9000  2916/+06
10000 2914/+03
12000 2910/-02
14000 2512/-07
16000 2414/-12
18000 2421/-17
24000 2317/-29
30000 2322/-45
34000 2328/-55
39000 2330/-59

SLIDE MOUNTAIN DATA:
 SLD HR 1100 M 38/6/2103/M  /SLIDE MTN UNOFFICIAL OBSERVATION

RENO TAF FORECAST:
KRNO 051120Z 0512/0612 29006KT P6SM SCT150
     FM052100 30012G22KT P6SM SCT120 SCT200
     FM061000 VRB04KT P6SM SCT200

CARSON CITY TAF FORECAST:
KCXP 051120Z 0512/0612 VRB04KT P6SM SCT150
     FM052100 27012G22KT P6SM SCT120 SCT200
     FM061100 VRB04KT P6SM SCT200

OUTLOOK FOR THE RENO-CARSON CITY-MINDEN AREA:
.WEDNESDAY...PARTLY CLOUDY IN THE MORNING...THEN MOSTLY CLOUDY
WITH A SLIGHT CHANCE OF SHOWERS AND THUNDERSTORMS IN THE
AFTERNOON. HIGHS 63 TO 68. NORTHWEST WINDS UP TO 10 MPH SHIFTING
TO THE WEST 10-15 MPH WITH GUSTS UP TO 30 MPH IN THE AFTERNOON.

SUNRISE AND SUNSET
MAY  5 2015...........SUNRISE   556 AM PDT   SUNSET   757 PM PDT
MAY  6 2015...........SUNRISE   554 AM PDT   SUNSET   758 PM PDT



THIS PRODUCT IS ROUTINELY PREPARED BY 700 AM AND IS
DISTRIBUTED TO THE RENO FLIGHT SERVICE STATION AS WELL AS THE
NATIONAL WEATHER SERVICE WORLD WIDE WEB HOMEPAGE AT:
       HTTP://WWW.WEATHER.GOV/RENO





USA.gov is the U.S. government's official web portal to all federal, state and local government web resources and services.